createdAt,value
2023-04-16T00:00:55.567Z,224.01
2023-04-16T00:01:55.690Z,224.49
2023-04-16T00:02:55.786Z,222.48
2023-04-16T00:03:55.964Z,222.68
2023-04-16T00:04:55.733Z,225.04
2023-04-16T00:05:55.902Z,224.34
2023-04-16T00:06:55.787Z,225.56
2023-04-16T00:07:55.811Z,224.96
2023-04-16T00:08:55.846Z,224.47
2023-04-16T00:09:55.878Z,223.94
2023-04-16T00:10:55.925Z,224.35
2023-04-16T00:11:55.928Z,224.50
2023-04-16T00:12:55.977Z,224.33
2023-04-16T00:13:56.001Z,223.09
2023-04-16T00:14:56.003Z,222.65
2023-04-16T00:15:56.192Z,220.39
2023-04-16T00:16:56.080Z,223.07
2023-04-16T00:17:56.221Z,222.42
2023-04-16T00:18:56.132Z,222.57
2023-04-16T00:19:56.156Z,223.60
2023-04-16T00:20:56.216Z,223.20
2023-04-16T00:21:56.232Z,223.76
2023-04-16T00:22:56.249Z,223.80
2023-04-16T00:23:56.317Z,224.73
2023-04-16T00:24:56.448Z,222.77
2023-04-16T00:25:56.394Z,223.21
2023-04-16T00:26:56.372Z,225.53
2023-04-16T00:27:56.415Z,223.23
2023-04-16T00:28:56.440Z,224.32
2023-04-16T00:29:56.490Z,223.04
2023-04-16T00:30:56.577Z,224.12
2023-04-16T00:31:56.568Z,224.62
2023-04-16T00:32:56.699Z,224.61
2023-04-16T00:33:56.632Z,224.51
2023-04-16T00:34:56.688Z,224.18
2023-04-16T00:35:56.697Z,225.49
2023-04-16T00:36:56.747Z,223.61
2023-04-16T00:37:56.816Z,224.13
2023-04-16T00:38:57.006Z,225.68
2023-04-16T00:39:56.948Z,224.75
2023-04-16T00:40:56.896Z,225.10
2023-04-16T00:41:56.936Z,225.12
2023-04-16T00:42:56.999Z,224.71
2023-04-16T00:43:57.019Z,224.86
2023-04-16T00:44:57.104Z,224.85
2023-04-16T00:45:57.151Z,227.46
2023-04-16T00:46:57.155Z,227.32
2023-04-16T00:47:57.771Z,227.69
2023-04-16T00:48:57.350Z,229.27
2023-04-16T00:49:57.278Z,228.86
2023-04-16T00:50:57.344Z,228.13
2023-04-16T00:51:57.343Z,227.72
2023-04-16T00:52:57.404Z,228.50
2023-04-16T00:53:57.541Z,226.98
2023-04-16T00:54:57.478Z,225.53
2023-04-16T00:55:57.543Z,226.45
2023-04-16T00:56:57.559Z,225.20
2023-04-16T00:57:57.609Z,226.72
2023-04-16T00:58:57.674Z,226.86
2023-04-16T00:59:57.748Z,226.04
2023-04-16T01:00:57.762Z,225.43
2023-04-16T01:01:57.924Z,225.82
2023-04-16T01:02:58.029Z,226.79
2023-04-16T01:03:58.050Z,226.04
2023-04-16T01:04:57.956Z,226.18
2023-04-16T01:05:57.977Z,226.35
2023-04-16T01:06:58.048Z,226.43
2023-04-16T01:07:58.086Z,226.58
2023-04-16T01:08:58.124Z,226.26
2023-04-16T01:09:58.168Z,226.29
2023-04-16T01:10:58.434Z,225.48
2023-04-16T01:11:58.235Z,226.30
2023-04-16T01:12:58.332Z,225.36
2023-04-16T01:13:58.358Z,226.72
2023-04-16T01:14:58.435Z,225.62
2023-04-16T01:15:58.514Z,225.62
2023-04-16T01:16:58.543Z,227.48
2023-04-16T01:17:58.573Z,226.56
2023-04-16T01:18:58.560Z,226.88
2023-04-16T01:19:58.699Z,226.63
2023-04-16T01:20:58.733Z,226.89
2023-04-16T01:21:58.749Z,225.80
2023-04-16T01:22:58.791Z,226.93
2023-04-16T01:23:58.803Z,226.98
2023-04-16T01:24:58.921Z,227.24
2023-04-16T01:25:58.898Z,231.02
2023-04-16T01:26:59.002Z,231.00
2023-04-16T01:27:59.024Z,229.03
2023-04-16T01:28:59.020Z,226.42
2023-04-16T01:29:59.087Z,227.84
2023-04-16T01:30:59.240Z,227.07
2023-04-16T01:31:59.206Z,228.79
2023-04-16T01:32:59.309Z,228.48
2023-04-16T01:33:59.274Z,227.71
2023-04-16T01:34:59.360Z,226.81
2023-04-16T01:35:59.396Z,228.78
2023-04-16T01:36:59.437Z,229.28
2023-04-16T01:37:59.436Z,226.97
2023-04-16T01:38:59.535Z,226.23
2023-04-16T01:39:59.564Z,228.51
2023-04-16T01:40:59.646Z,229.18
2023-04-16T01:41:59.706Z,226.20
2023-04-16T01:42:59.796Z,227.14
2023-04-16T01:43:59.788Z,226.04
2023-04-16T01:45:00.001Z,225.20
2023-04-16T01:45:59.853Z,223.91
2023-04-16T01:47:00.067Z,225.27
2023-04-16T01:47:59.943Z,223.85
2023-04-16T01:48:59.980Z,226.23
2023-04-16T01:49:59.974Z,225.37
2023-04-16T01:51:00.126Z,226.20
2023-04-16T01:52:00.162Z,228.84
2023-04-16T01:53:00.121Z,228.32
2023-04-16T01:54:00.188Z,228.50
2023-04-16T01:55:00.202Z,226.49
2023-04-16T01:56:00.236Z,224.78
2023-04-16T01:57:00.343Z,227.49
2023-04-16T01:58:00.394Z,226.37
2023-04-16T01:59:00.581Z,228.67
2023-04-16T02:00:00.410Z,228.15
2023-04-16T02:01:00.683Z,228.97
2023-04-16T02:02:00.651Z,229.23
2023-04-16T02:03:00.845Z,227.35
2023-04-16T02:04:00.802Z,230.49
2023-04-16T02:05:00.707Z,231.15
2023-04-16T02:06:00.725Z,230.52
2023-04-16T02:07:00.825Z,230.11
2023-04-16T02:08:00.846Z,227.83
2023-04-16T02:09:00.897Z,226.26
2023-04-16T02:10:00.928Z,227.30
2023-04-16T02:11:00.975Z,227.13
2023-04-16T02:12:01.055Z,227.42
2023-04-16T02:13:01.186Z,228.30
2023-04-16T02:14:01.164Z,227.14
2023-04-16T02:15:01.227Z,226.82
2023-04-16T02:16:01.290Z,228.68
2023-04-16T02:17:01.365Z,229.56
2023-04-16T02:18:01.453Z,230.06
2023-04-16T02:19:01.390Z,229.97
2023-04-16T02:20:01.506Z,232.27
2023-04-16T02:21:01.521Z,233.81
2023-04-16T02:22:01.593Z,236.23
2023-04-16T02:23:01.719Z,234.05
2023-04-16T02:24:01.692Z,233.01
2023-04-16T02:25:01.772Z,233.38
2023-04-16T02:26:01.893Z,232.96
2023-04-16T02:27:01.947Z,229.97
2023-04-16T02:28:01.910Z,230.40
2023-04-16T02:29:01.993Z,230.48
2023-04-16T02:30:02.096Z,228.39
2023-04-16T02:31:02.254Z,227.10
2023-04-16T02:32:02.213Z,230.81
2023-04-16T02:33:02.207Z,232.05
2023-04-16T02:34:02.295Z,231.54
2023-04-16T02:35:02.326Z,231.03
2023-04-16T02:36:02.442Z,231.74
2023-04-16T02:37:02.404Z,234.01
2023-04-16T02:38:02.722Z,232.87
2023-04-16T02:39:02.691Z,233.55
2023-04-16T02:40:02.562Z,231.36
2023-04-16T02:41:02.619Z,229.99
2023-04-16T02:42:02.878Z,230.32
2023-04-16T02:43:02.850Z,230.34
2023-04-16T02:44:02.831Z,229.64
2023-04-16T02:45:02.896Z,229.01
2023-04-16T02:46:02.980Z,228.18
2023-04-16T02:47:02.981Z,230.56
2023-04-16T02:48:03.083Z,230.44
2023-04-16T02:49:03.112Z,229.82
2023-04-16T02:50:03.159Z,233.09
2023-04-16T02:51:03.217Z,233.82
2023-04-16T02:52:03.311Z,232.80
2023-04-16T02:53:03.388Z,231.59
2023-04-16T02:54:03.536Z,231.78
2023-04-16T02:55:03.587Z,230.46
2023-04-16T02:56:03.542Z,232.76
2023-04-16T02:57:03.518Z,230.93
2023-04-16T02:58:03.613Z,232.00
2023-04-16T02:59:03.694Z,234.25
2023-04-16T03:00:03.721Z,231.86
2023-04-16T03:01:03.806Z,229.64
2023-04-16T03:02:03.858Z,230.91
2023-04-16T03:03:03.983Z,231.21
2023-04-16T03:04:04.010Z,231.60
2023-04-16T03:05:04.091Z,230.36
2023-04-16T03:06:04.060Z,230.23
2023-04-16T03:07:04.184Z,231.14
2023-04-16T03:08:04.191Z,231.86
2023-04-16T03:09:04.220Z,231.51
2023-04-16T03:10:04.337Z,232.46
2023-04-16T03:11:04.416Z,232.92
2023-04-16T03:12:04.585Z,233.37
2023-04-16T03:13:04.578Z,230.14
2023-04-16T03:14:04.538Z,232.23
2023-04-16T03:15:04.592Z,233.06
2023-04-16T03:16:04.704Z,230.70
2023-04-16T03:17:04.685Z,232.98
2023-04-16T03:18:04.840Z,232.41
2023-04-16T03:19:04.854Z,229.66
2023-04-16T03:20:04.992Z,229.68
2023-04-16T03:21:04.973Z,229.90
2023-04-16T03:22:05.048Z,231.87
2023-04-16T03:23:05.033Z,231.91
2023-04-16T03:24:05.090Z,233.82
2023-04-16T03:25:05.153Z,233.52
2023-04-16T03:26:05.233Z,232.15
2023-04-16T03:27:05.297Z,232.72
2023-04-16T03:28:05.362Z,232.46
2023-04-16T03:29:05.404Z,232.01
2023-04-16T03:30:05.434Z,233.30
2023-04-16T03:31:05.635Z,233.80
2023-04-16T03:32:05.580Z,231.75
2023-04-16T03:33:05.649Z,232.83
2023-04-16T03:34:05.705Z,231.32
2023-04-16T03:35:05.755Z,231.49
2023-04-16T03:36:05.877Z,230.30
2023-04-16T03:37:05.839Z,231.51
2023-04-16T03:38:05.929Z,233.43
2023-04-16T03:39:06.002Z,233.88
2023-04-16T03:40:06.064Z,234.50
2023-04-16T03:41:06.129Z,233.54
2023-04-16T03:42:06.179Z,233.29
2023-04-16T03:43:06.234Z,234.53
2023-04-16T03:44:06.371Z,235.77
2023-04-16T03:45:06.363Z,234.93
2023-04-16T03:46:06.459Z,234.96
2023-04-16T03:47:06.450Z,233.94
2023-04-16T03:48:06.511Z,234.48
2023-04-16T03:49:06.630Z,234.09
2023-04-16T03:50:06.653Z,232.91
2023-04-16T03:51:06.708Z,234.78
2023-04-16T03:52:06.741Z,233.33
2023-04-16T03:53:06.829Z,234.48
2023-04-16T03:54:07.272Z,235.32
2023-04-16T03:55:06.918Z,234.35
2023-04-16T03:56:06.997Z,233.10
2023-04-16T03:57:07.144Z,232.75
2023-04-16T03:58:07.040Z,232.61
2023-04-16T03:59:07.307Z,232.09
2023-04-16T04:00:07.209Z,231.61
2023-04-16T04:01:07.244Z,233.63
2023-04-16T04:02:07.457Z,234.72
2023-04-16T04:03:07.691Z,235.97
2023-04-16T04:04:07.566Z,235.24
2023-04-16T04:05:07.625Z,235.75
2023-04-16T04:06:07.579Z,236.09
2023-04-16T04:07:07.637Z,234.66
2023-04-16T04:08:07.665Z,233.01
2023-04-16T04:09:07.995Z,233.01
2023-04-16T04:10:07.788Z,232.68
2023-04-16T04:11:07.962Z,232.61
2023-04-16T04:12:07.899Z,233.51
2023-04-16T04:13:08.019Z,233.84
2023-04-16T04:14:07.972Z,233.68
2023-04-16T04:15:08.082Z,232.71
2023-04-16T04:16:08.178Z,232.10
2023-04-16T04:17:08.186Z,233.62
2023-04-16T04:18:08.319Z,234.50
2023-04-16T04:19:08.469Z,234.51
2023-04-16T04:20:08.379Z,232.76
2023-04-16T04:21:08.402Z,232.73
2023-04-16T04:22:08.501Z,233.00
2023-04-16T04:23:08.570Z,234.43
2023-04-16T04:24:08.600Z,232.81
2023-04-16T04:25:08.681Z,235.04
2023-04-16T04:26:08.780Z,235.08
2023-04-16T04:27:08.783Z,232.02
2023-04-16T04:28:08.822Z,234.49
2023-04-16T04:29:09.140Z,233.85
2023-04-16T04:30:09.183Z,234.91
2023-04-16T04:31:09.012Z,233.73
2023-04-16T04:32:09.061Z,234.13
2023-04-16T04:33:09.125Z,235.81
2023-04-16T04:34:09.335Z,237.26
2023-04-16T04:35:09.337Z,235.23
2023-04-16T04:36:09.308Z,235.91
2023-04-16T04:37:09.354Z,237.70
2023-04-16T04:38:09.413Z,237.77
2023-04-16T04:39:09.691Z,235.00
2023-04-16T04:40:09.524Z,234.55
2023-04-16T04:41:09.692Z,237.06
2023-04-16T04:42:09.633Z,234.45
2023-04-16T04:43:09.642Z,234.56
2023-04-16T04:44:09.778Z,233.90
2023-04-16T04:45:09.897Z,236.71
2023-04-16T04:46:09.914Z,238.25
2023-04-16T04:47:09.877Z,237.62
2023-04-16T04:48:09.992Z,236.64
2023-04-16T04:49:10.459Z,234.52
2023-04-16T04:50:10.113Z,234.45
2023-04-16T04:51:10.144Z,234.32
2023-04-16T04:52:10.320Z,234.68
2023-04-16T04:53:10.272Z,234.58
2023-04-16T04:54:10.310Z,233.01
2023-04-16T04:55:10.355Z,234.89
2023-04-16T04:56:12.726Z,236.15
2023-04-16T04:57:10.471Z,237.39
2023-04-16T04:58:10.382Z,237.55
2023-04-16T04:59:10.654Z,236.57
2023-04-16T05:00:10.708Z,237.35
2023-04-16T05:01:10.465Z,238.61
2023-04-16T05:02:10.468Z,237.45
2023-04-16T05:03:10.563Z,237.01
2023-04-16T05:04:10.486Z,238.16
2023-04-16T05:05:10.432Z,237.97
2023-04-16T05:06:10.377Z,237.36
2023-04-16T05:07:10.354Z,239.03
2023-04-16T05:08:10.338Z,237.87
2023-04-16T05:09:10.527Z,237.86
2023-04-16T05:10:10.348Z,238.97
2023-04-16T05:11:10.272Z,240.84
2023-04-16T05:12:10.322Z,239.65
2023-04-16T05:13:10.418Z,238.52
2023-04-16T05:14:10.291Z,238.00
2023-04-16T05:15:10.332Z,237.76
2023-04-16T05:16:10.406Z,237.22
2023-04-16T05:17:10.359Z,238.15
2023-04-16T05:18:10.307Z,237.46
2023-04-16T05:19:10.425Z,234.91
2023-04-16T05:20:10.264Z,234.43
2023-04-16T05:21:10.276Z,234.90
2023-04-16T05:22:10.222Z,233.37
2023-04-16T05:23:10.342Z,234.92
2023-04-16T05:24:10.290Z,234.48
2023-04-16T05:25:10.199Z,234.88
2023-04-16T05:26:10.217Z,234.17
2023-04-16T05:27:10.329Z,236.95
2023-04-16T05:28:10.230Z,236.87
2023-04-16T05:29:10.404Z,238.54
2023-04-16T05:30:10.180Z,237.83
2023-04-16T05:31:10.303Z,237.43
2023-04-16T05:32:10.240Z,239.85
2023-04-16T05:33:10.465Z,240.50
2023-04-16T05:34:10.368Z,239.28
2023-04-16T05:35:10.465Z,237.84
2023-04-16T05:36:10.482Z,237.05
2023-04-16T05:37:10.553Z,238.37
2023-04-16T05:38:10.602Z,238.73
2023-04-16T05:39:10.860Z,238.01
2023-04-16T05:40:10.723Z,238.29
2023-04-16T05:41:10.764Z,239.26
2023-04-16T05:42:10.898Z,237.77
2023-04-16T05:43:10.923Z,237.14
2023-04-16T05:44:10.952Z,236.63
2023-04-16T05:45:11.001Z,236.88
2023-04-16T05:46:11.095Z,237.13
2023-04-16T05:47:11.161Z,236.34
2023-04-16T05:48:11.340Z,235.92
2023-04-16T05:49:11.718Z,234.43
2023-04-16T05:50:11.335Z,235.13
2023-04-16T05:51:11.358Z,235.24
2023-04-16T05:52:11.482Z,235.34
2023-04-16T05:53:11.540Z,237.65
2023-04-16T05:54:11.553Z,235.25
2023-04-16T05:55:11.640Z,237.36
2023-04-16T05:56:11.691Z,236.87
2023-04-16T05:57:11.737Z,237.73
2023-04-16T05:58:11.803Z,238.22
2023-04-16T05:59:12.074Z,236.25
2023-04-16T06:00:11.870Z,236.94
2023-04-16T06:01:11.941Z,235.08
2023-04-16T06:02:12.231Z,234.96
2023-04-16T06:03:12.242Z,236.58
2023-04-16T06:04:12.333Z,237.00
2023-04-16T06:05:12.231Z,235.86
2023-04-16T06:06:12.242Z,239.44
2023-04-16T06:07:12.309Z,240.78
2023-04-16T06:08:12.410Z,240.02
2023-04-16T06:09:12.480Z,240.45
2023-04-16T06:10:12.520Z,240.50
2023-04-16T06:11:12.615Z,240.44
2023-04-16T06:12:12.617Z,240.04
2023-04-16T06:13:12.686Z,240.36
2023-04-16T06:14:12.789Z,241.09
2023-04-16T06:15:12.940Z,241.47
2023-04-16T06:16:12.940Z,239.29
2023-04-16T06:17:12.903Z,238.88
2023-04-16T06:18:13.027Z,237.63
2023-04-16T06:19:13.018Z,239.17
2023-04-16T06:20:13.033Z,239.79
2023-04-16T06:21:13.122Z,241.10
2023-04-16T06:22:13.189Z,243.27
2023-04-16T06:23:13.342Z,241.91
2023-04-16T06:24:13.354Z,242.37
2023-04-16T06:25:13.432Z,242.52
2023-04-16T06:26:13.384Z,241.10
2023-04-16T06:27:13.430Z,241.55
2023-04-16T06:28:13.483Z,241.46
2023-04-16T06:29:13.522Z,240.56
2023-04-16T06:30:13.608Z,240.26
2023-04-16T06:31:13.911Z,239.28
2023-04-16T06:32:13.722Z,238.59
2023-04-16T06:33:13.774Z,237.86
2023-04-16T06:34:13.843Z,235.69
2023-04-16T06:35:13.897Z,236.63
2023-04-16T06:36:13.953Z,238.05
2023-04-16T06:37:14.003Z,234.91
2023-04-16T06:38:14.115Z,234.60
2023-04-16T06:39:14.221Z,236.05
2023-04-16T06:40:14.219Z,236.83
2023-04-16T06:41:14.299Z,238.64
2023-04-16T06:42:14.396Z,237.15
2023-04-16T06:43:14.393Z,237.93
2023-04-16T06:44:14.469Z,239.40
2023-04-16T06:45:14.632Z,240.59
2023-04-16T06:46:14.608Z,240.78
2023-04-16T06:47:14.699Z,239.93
2023-04-16T06:48:14.633Z,238.67
2023-04-16T06:49:14.749Z,238.36
2023-04-16T06:50:14.751Z,238.89
2023-04-16T06:51:14.822Z,239.07
2023-04-16T06:52:14.881Z,239.52
2023-04-16T06:53:14.889Z,241.65
2023-04-16T06:54:14.948Z,240.80
2023-04-16T06:55:15.009Z,239.25
2023-04-16T06:56:15.007Z,236.77
2023-04-16T06:57:15.121Z,237.93
2023-04-16T06:58:15.136Z,238.96
2023-04-16T06:59:15.149Z,239.49
2023-04-16T07:00:15.258Z,242.91
2023-04-16T07:01:15.404Z,242.00
2023-04-16T07:02:15.546Z,245.06
2023-04-16T07:03:15.423Z,246.66
2023-04-16T07:04:15.475Z,246.64
2023-04-16T07:05:15.469Z,247.04
2023-04-16T07:06:15.563Z,246.64
2023-04-16T07:07:15.615Z,246.35
2023-04-16T07:08:15.582Z,248.67
2023-04-16T07:09:15.645Z,247.12
2023-04-16T07:10:15.733Z,246.67
2023-04-16T07:11:15.723Z,248.14
2023-04-16T07:12:15.788Z,246.44
2023-04-16T07:13:15.800Z,247.64
2023-04-16T07:14:15.809Z,248.56
2023-04-16T07:15:15.978Z,249.15
2023-04-16T07:16:15.925Z,249.66
2023-04-16T07:17:15.966Z,248.59
2023-04-16T07:18:16.079Z,249.73
2023-04-16T07:19:16.071Z,247.31
2023-04-16T07:20:16.038Z,245.07
2023-04-16T07:21:16.105Z,244.84
2023-04-16T07:22:16.235Z,246.03
2023-04-16T07:23:16.219Z,247.76
2023-04-16T07:24:16.227Z,248.94
2023-04-16T07:25:16.327Z,249.18
2023-04-16T07:26:16.295Z,247.19
2023-04-16T07:27:16.345Z,246.91
2023-04-16T07:28:16.411Z,248.16
2023-04-16T07:29:16.414Z,248.67
2023-04-16T07:30:16.425Z,246.65
2023-04-16T07:31:16.578Z,248.34
2023-04-16T07:32:16.675Z,248.83
2023-04-16T07:33:16.587Z,248.29
2023-04-16T07:34:16.627Z,246.46
2023-04-16T07:35:16.677Z,246.90
2023-04-16T07:36:16.703Z,246.87
2023-04-16T07:37:16.730Z,247.22
2023-04-16T07:38:16.776Z,247.91
2023-04-16T07:39:16.867Z,245.34
2023-04-16T07:40:16.849Z,248.56
2023-04-16T07:41:16.843Z,246.30
2023-04-16T07:42:16.918Z,246.54
2023-04-16T07:43:16.961Z,248.50
2023-04-16T07:44:16.986Z,247.37
2023-04-16T07:45:16.997Z,246.90
2023-04-16T07:46:17.095Z,245.89
2023-04-16T07:47:17.092Z,245.70
2023-04-16T07:48:17.132Z,246.20
2023-04-16T07:49:17.115Z,247.42
2023-04-16T07:50:17.123Z,243.65
2023-04-16T07:51:17.134Z,242.57
2023-04-16T07:52:17.232Z,244.24
2023-04-16T07:53:17.252Z,245.47
2023-04-16T07:54:17.238Z,243.82
2023-04-16T07:55:17.326Z,245.02
2023-04-16T07:56:17.287Z,244.47
2023-04-16T07:57:17.431Z,244.49
2023-04-16T07:58:17.428Z,244.30
2023-04-16T07:59:23.030Z,244.57
2023-04-16T08:00:18.333Z,244.76
2023-04-16T08:01:17.349Z,241.52
2023-04-16T08:02:17.426Z,244.77
2023-04-16T08:03:17.481Z,244.22
2023-04-16T08:04:17.455Z,245.14
2023-04-16T08:05:17.373Z,243.70
2023-04-16T08:06:17.322Z,243.31
2023-04-16T08:07:17.354Z,242.53
2023-04-16T08:08:17.322Z,245.00
2023-04-16T08:09:17.287Z,242.44
2023-04-16T08:10:17.316Z,240.75
2023-04-16T08:11:17.291Z,238.35
2023-04-16T08:12:17.250Z,243.37
2023-04-16T08:13:17.275Z,241.46
2023-04-16T08:14:17.361Z,238.24
2023-04-16T08:15:17.234Z,241.78
2023-04-16T08:16:17.332Z,240.08
2023-04-16T08:17:17.252Z,244.14
2023-04-16T08:18:17.222Z,240.70
2023-04-16T08:19:17.218Z,241.33
2023-04-16T08:20:19.252Z,239.71
2023-04-16T08:21:17.180Z,242.36
2023-04-16T08:22:17.188Z,239.71
2023-04-16T08:23:17.271Z,239.07
2023-04-16T08:24:17.308Z,236.86
2023-04-16T08:25:17.247Z,238.90
2023-04-16T08:26:17.153Z,237.96
2023-04-16T08:27:19.762Z,239.27
2023-04-16T08:28:17.188Z,240.87
2023-04-16T08:29:17.128Z,236.78
2023-04-16T08:30:17.149Z,239.94
2023-04-16T08:31:17.164Z,241.78
2023-04-16T08:32:17.166Z,240.89
2023-04-16T08:33:17.097Z,239.27
2023-04-16T08:34:17.119Z,233.37
2023-04-16T08:35:17.119Z,239.00
2023-04-16T08:36:17.108Z,237.55
2023-04-16T08:37:17.085Z,238.20
2023-04-16T08:38:17.097Z,235.96
2023-04-16T08:39:17.068Z,237.27
2023-04-16T08:40:17.110Z,238.43
2023-04-16T08:41:17.114Z,236.80
2023-04-16T08:42:17.054Z,239.62
2023-04-16T08:43:17.037Z,234.60
2023-04-16T08:44:17.158Z,235.25
2023-04-16T08:45:17.108Z,240.93
2023-04-16T08:46:17.066Z,238.14
2023-04-16T08:47:17.013Z,235.67
2023-04-16T08:48:16.999Z,236.50
2023-04-16T08:49:17.024Z,235.06
2023-04-16T08:50:17.007Z,236.57
2023-04-16T08:51:17.023Z,234.32
2023-04-16T08:52:17.148Z,235.69
2023-04-16T08:53:17.027Z,233.87
2023-04-16T08:54:17.030Z,234.02
2023-04-16T08:55:17.002Z,232.43
2023-04-16T08:56:16.935Z,236.13
2023-04-16T08:57:17.152Z,234.30
2023-04-16T08:58:17.037Z,235.77
2023-04-16T08:59:16.990Z,235.96
2023-04-16T09:00:16.930Z,239.31
2023-04-16T09:01:16.932Z,236.01
2023-04-16T09:02:17.027Z,233.76
2023-04-16T09:03:17.129Z,233.34
2023-04-16T09:04:17.116Z,235.56
2023-04-16T09:05:16.957Z,235.32
2023-04-16T09:06:16.947Z,234.00
2023-04-16T09:07:16.905Z,235.22
2023-04-16T09:08:16.850Z,236.48
2023-04-16T09:09:16.877Z,235.14
2023-04-16T09:10:16.930Z,231.89
2023-04-16T09:11:16.866Z,236.93
2023-04-16T09:12:16.883Z,231.87
2023-04-16T09:13:16.977Z,232.96
2023-04-16T09:14:16.871Z,233.41
2023-04-16T09:15:16.978Z,232.75
2023-04-16T09:16:17.001Z,234.27
2023-04-16T09:17:16.814Z,232.41
2023-04-16T09:18:16.800Z,233.21
2023-04-16T09:19:16.825Z,232.85
2023-04-16T09:20:16.868Z,232.23
2023-04-16T09:21:16.777Z,233.83
2023-04-16T09:22:16.807Z,232.59
2023-04-16T09:23:16.741Z,235.08
2023-04-16T09:24:16.826Z,232.27
2023-04-16T09:25:16.719Z,235.56
2023-04-16T09:26:16.813Z,234.50
2023-04-16T09:27:16.763Z,233.15
2023-04-16T09:28:16.749Z,232.49
2023-04-16T09:29:16.757Z,235.14
2023-04-16T09:30:16.729Z,234.97
2023-04-16T09:31:16.828Z,232.99
2023-04-16T09:32:16.801Z,233.36
2023-04-16T09:33:16.760Z,230.25
2023-04-16T09:34:16.700Z,231.77
2023-04-16T09:35:16.699Z,235.96
2023-04-16T09:36:16.719Z,231.78
2023-04-16T09:37:16.711Z,232.33
2023-04-16T09:38:16.674Z,232.73
2023-04-16T09:39:16.694Z,236.08
2023-04-16T09:40:16.658Z,234.46
2023-04-16T09:41:16.658Z,230.26
2023-04-16T09:42:16.662Z,230.41
2023-04-16T09:43:16.666Z,228.53
2023-04-16T09:44:16.656Z,229.45
2023-04-16T09:45:16.593Z,231.11
2023-04-16T09:46:16.721Z,227.53
2023-04-16T09:47:16.596Z,230.82
2023-04-16T09:48:16.648Z,231.78
2023-04-16T09:49:16.598Z,231.30
2023-04-16T09:50:18.170Z,228.26
2023-04-16T09:51:16.615Z,228.77
2023-04-16T09:52:16.613Z,229.76
2023-04-16T09:53:16.687Z,223.66
2023-04-16T09:54:16.684Z,223.41
2023-04-16T09:55:16.760Z,224.66
2023-04-16T09:56:16.853Z,226.11
2023-04-16T09:57:16.922Z,225.50
2023-04-16T09:58:16.972Z,224.10
2023-04-16T09:59:16.970Z,226.08
2023-04-16T10:00:17.007Z,227.48
2023-04-16T10:01:17.114Z,227.70
2023-04-16T10:02:17.161Z,227.77
2023-04-16T10:03:17.173Z,227.66
2023-04-16T10:04:17.281Z,226.71
2023-04-16T10:05:17.220Z,224.17
2023-04-16T10:06:17.366Z,223.76
2023-04-16T10:07:17.335Z,226.24
2023-04-16T10:08:17.341Z,228.91
2023-04-16T10:09:17.415Z,228.94
2023-04-16T10:10:17.475Z,229.70
2023-04-16T10:11:17.596Z,227.17
2023-04-16T10:12:17.579Z,231.59
2023-04-16T10:13:17.570Z,231.93
2023-04-16T10:14:17.586Z,230.95
2023-04-16T10:15:17.593Z,231.43
2023-04-16T10:16:17.650Z,229.86
2023-04-16T10:17:17.729Z,229.49
2023-04-16T10:18:17.727Z,229.67
2023-04-16T10:19:17.794Z,228.44
2023-04-16T10:20:17.753Z,224.91
2023-04-16T10:21:17.755Z,228.12
2023-04-16T10:22:17.779Z,226.82
2023-04-16T10:23:17.981Z,226.35
2023-04-16T10:24:17.818Z,229.46
2023-04-16T10:25:17.875Z,224.41
2023-04-16T10:26:17.919Z,226.27
2023-04-16T10:27:17.906Z,231.59
2023-04-16T10:28:17.985Z,228.21
2023-04-16T10:29:18.020Z,231.45
2023-04-16T10:30:18.105Z,232.20
2023-04-16T10:31:18.030Z,227.85
2023-04-16T10:32:18.072Z,227.42
2023-04-16T10:33:18.082Z,229.54
2023-04-16T10:34:18.137Z,225.71
2023-04-16T10:35:18.136Z,229.57
2023-04-16T10:36:18.153Z,231.58
2023-04-16T10:37:18.148Z,231.13
2023-04-16T10:38:18.247Z,232.96
2023-04-16T10:39:18.187Z,231.58
2023-04-16T10:40:18.226Z,240.23
2023-04-16T10:41:18.237Z,235.70
2023-04-16T10:42:18.294Z,235.14
2023-04-16T10:43:18.308Z,234.49
2023-04-16T10:44:18.306Z,233.71
2023-04-16T10:45:18.297Z,234.20
2023-04-16T10:46:18.411Z,239.97
2023-04-16T10:47:18.368Z,235.10
2023-04-16T10:48:18.398Z,234.87
2023-04-16T10:49:18.368Z,233.35
2023-04-16T10:50:18.461Z,235.05
2023-04-16T10:51:18.430Z,234.59
2023-04-16T10:52:18.421Z,235.17
2023-04-16T10:53:18.422Z,235.06
2023-04-16T10:54:18.434Z,237.59
2023-04-16T10:55:18.506Z,236.26
2023-04-16T10:56:18.582Z,233.92
2023-04-16T10:57:18.564Z,238.85
2023-04-16T10:58:18.610Z,235.87
2023-04-16T10:59:18.582Z,233.31
2023-04-16T11:00:18.569Z,233.35
2023-04-16T11:01:18.661Z,237.50
2023-04-16T11:02:19.090Z,232.34
2023-04-16T11:03:19.008Z,236.31
2023-04-16T11:04:18.716Z,232.16
2023-04-16T11:05:18.706Z,232.40
2023-04-16T11:06:18.682Z,231.42
2023-04-16T11:07:18.862Z,237.47
2023-04-16T11:08:18.772Z,231.45
2023-04-16T11:09:18.772Z,229.01
2023-04-16T11:10:18.794Z,228.35
2023-04-16T11:11:18.818Z,231.98
2023-04-16T11:12:18.896Z,230.81
2023-04-16T11:13:18.912Z,231.51
2023-04-16T11:14:18.836Z,234.27
2023-04-16T11:15:18.949Z,231.95
2023-04-16T11:16:19.000Z,227.66
2023-04-16T11:17:18.902Z,226.32
2023-04-16T11:18:19.038Z,223.37
2023-04-16T11:19:18.960Z,224.34
2023-04-16T11:20:19.893Z,226.91
2023-04-16T11:21:18.992Z,223.23
2023-04-16T11:22:18.995Z,225.54
2023-04-16T11:23:19.094Z,229.96
2023-04-16T11:24:19.107Z,228.22
2023-04-16T11:25:19.042Z,231.31
2023-04-16T11:26:19.052Z,237.66
2023-04-16T11:27:19.111Z,237.00
2023-04-16T11:28:19.106Z,238.00
2023-04-16T11:29:19.313Z,231.26
2023-04-16T11:30:19.224Z,228.28
2023-04-16T11:31:19.264Z,226.54
2023-04-16T11:32:19.232Z,226.08
2023-04-16T11:33:19.206Z,225.31
2023-04-16T11:34:19.250Z,227.61
2023-04-16T11:35:19.353Z,228.27
2023-04-16T11:36:19.287Z,226.99
2023-04-16T11:37:19.336Z,230.13
2023-04-16T11:38:19.314Z,227.09
2023-04-16T11:39:19.389Z,228.10
2023-04-16T11:40:19.391Z,226.51
2023-04-16T11:41:19.390Z,228.75
2023-04-16T11:42:19.555Z,226.54
2023-04-16T11:43:19.452Z,231.15
2023-04-16T11:44:19.552Z,229.88
2023-04-16T11:45:19.581Z,231.41
2023-04-16T11:46:27.511Z,230.71
2023-04-16T11:47:20.716Z,231.06
2023-04-16T11:48:19.514Z,231.21
2023-04-16T11:49:19.497Z,232.60
2023-04-16T11:50:19.416Z,232.94
2023-04-16T11:51:19.474Z,233.03
2023-04-16T11:52:19.461Z,233.74
2023-04-16T11:53:19.446Z,237.37
2023-04-16T11:54:19.487Z,237.09
2023-04-16T11:55:19.424Z,234.84
2023-04-16T11:56:19.407Z,238.70
2023-04-16T11:57:19.438Z,233.83
2023-04-16T11:58:19.386Z,236.50
2023-04-16T11:59:19.446Z,235.87
2023-04-16T12:00:24.399Z,240.69
2023-04-16T12:01:20.386Z,240.80
2023-04-16T12:02:19.567Z,241.14
2023-04-16T12:03:19.585Z,236.98
2023-04-16T12:04:19.428Z,237.07
2023-04-16T12:05:19.384Z,236.34
2023-04-16T12:06:19.374Z,236.54
2023-04-16T12:07:19.572Z,237.54
2023-04-16T12:08:19.305Z,235.82
2023-04-16T12:09:20.033Z,234.54
2023-04-16T12:10:19.531Z,235.45
2023-04-16T12:11:19.297Z,234.92
2023-04-16T12:12:19.390Z,234.81
2023-04-16T12:13:19.350Z,234.30
2023-04-16T12:14:19.340Z,233.34
2023-04-16T12:15:19.284Z,238.40
2023-04-16T12:16:19.602Z,235.40
2023-04-16T12:17:19.261Z,233.48
2023-04-16T12:18:19.358Z,231.77
2023-04-16T12:19:19.366Z,237.16
2023-04-16T12:20:19.283Z,231.80
2023-04-16T12:21:19.424Z,235.97
2023-04-16T12:22:19.264Z,239.57
2023-04-16T12:23:19.275Z,234.29
2023-04-16T12:24:19.275Z,237.47
2023-04-16T12:25:19.302Z,236.78
2023-04-16T12:26:19.337Z,235.45
2023-04-16T12:27:19.340Z,234.42
2023-04-16T12:28:19.350Z,231.05
2023-04-16T12:29:19.400Z,232.21